createdAt,value
2017-09-26T13:26:33.082Z,929.71
2017-09-26T13:26:51.845Z,929.7
2017-09-26T13:27:42.503Z,929.66
2017-09-26T13:28:01.980Z,929.66
2017-09-26T13:28:34.723Z,929.64
2017-09-26T13:28:53.303Z,929.6
2017-09-26T13:29:43.832Z,929.63
2017-09-26T13:30:02.595Z,929.59
2017-09-26T13:30:19.997Z,929.59
2017-09-26T13:30:38.472Z,929.61
2017-09-26T13:30:57.193Z,929.63
2017-09-26T13:31:15.143Z,929.58
2017-09-26T13:31:33.892Z,929.64
2017-09-26T13:31:52.833Z,929.65
2017-09-26T13:32:11.155Z,929.63
2017-09-26T13:32:31.356Z,929.58
2017-09-26T13:32:51.392Z,929.57
2017-09-26T13:33:09.362Z,929.62
2017-09-26T13:33:28.739Z,929.58
2017-09-26T13:34:02.771Z,929.6
2017-09-26T13:34:20.526Z,929.57
2017-09-26T13:34:40.472Z,929.55
2017-09-26T13:34:58.898Z,929.55
2017-09-26T13:35:31.667Z,929.58
2017-09-26T13:35:51.249Z,929.56
2017-09-26T13:36:09.317Z,929.56
2017-09-26T13:36:27.634Z,929.52
2017-09-26T13:36:46.509Z,929.56
2017-09-26T13:37:07.263Z,929.54
2017-09-26T13:37:27.009Z,929.52
2017-09-26T13:37:59.620Z,929.59
2017-09-26T13:38:18.573Z,929.56
2017-09-26T13:38:37.153Z,929.55
2017-09-26T13:38:56.281Z,929.54
2017-09-26T13:39:14.940Z,929.5
2017-09-26T13:39:47.450Z,929.54
2017-09-26T13:40:06.789Z,929.53
2017-09-26T13:40:25.855Z,929.51
2017-09-26T13:40:44.579Z,929.49
2017-09-26T13:41:04.528Z,929.5
2017-09-26T13:41:22.790Z,929.55
2017-09-26T13:41:41.992Z,929.56
2017-09-26T13:42:00.893Z,929.58
2017-09-26T13:42:20.913Z,929.52
2017-09-26T13:42:52.731Z,929.49
2017-09-26T13:43:12.431Z,929.51
2017-09-26T13:43:30.141Z,929.5
2017-09-26T13:43:49.813Z,929.51
2017-09-26T13:44:08.732Z,929.51
2017-09-26T13:44:27.388Z,929.51
2017-09-26T13:45:00.152Z,929.46
2017-09-26T13:45:33.105Z,929.45
2017-09-26T13:45:51.908Z,929.45
2017-09-26T13:46:10.755Z,929.45
2017-09-26T13:46:29.780Z,929.47
2017-09-26T13:46:48.869Z,929.46
2017-09-26T13:47:40.565Z,929.43
2017-09-26T13:47:59.244Z,929.4
2017-09-26T13:48:18.516Z,929.41
2017-09-26T13:48:36.878Z,929.41
2017-09-26T13:48:55.233Z,929.41
2017-09-26T13:49:28.279Z,929.39
2017-09-26T13:50:21.426Z,929.43
2017-09-26T13:50:40.713Z,929.46
2017-09-26T13:50:59.477Z,929.47
2017-09-26T13:51:18.462Z,929.47
2017-09-26T13:51:37.203Z,929.46
2017-09-26T13:51:56.508Z,929.45
2017-09-26T13:52:29.969Z,929.44
2017-09-26T13:52:49.039Z,929.43
2017-09-26T13:53:07.722Z,929.42
2017-09-26T13:53:26.183Z,929.46
2017-09-26T13:53:45.145Z,929.48
2017-09-26T13:54:04.887Z,929.45
2017-09-26T13:54:24.509Z,929.41
2017-09-26T13:54:43.260Z,929.42
2017-09-26T13:55:01.408Z,929.47
2017-09-26T13:55:20.649Z,929.41
2017-09-26T13:55:39.221Z,929.4
2017-09-26T13:55:58.269Z,929.4
2017-09-26T13:56:17.420Z,929.39
2017-09-26T13:57:09.668Z,929.37
2017-09-26T13:57:27.586Z,929.38
2017-09-26T13:57:46.942Z,929.38
2017-09-26T13:58:06.845Z,929.36
2017-09-26T13:58:59.175Z,929.37
2017-09-26T13:59:18.187Z,929.37
2017-09-26T13:59:37.201Z,929.38
2017-09-26T14:00:10.764Z,929.36
2017-09-26T14:00:29.495Z,929.33
2017-09-26T14:00:48.526Z,929.37
2017-09-26T14:01:06.465Z,929.38
2017-09-26T14:01:39.340Z,929.33
2017-09-26T14:01:58.964Z,929.33
2017-09-26T14:02:17.996Z,929.37
2017-09-26T14:02:36.693Z,929.33
2017-09-26T14:02:54.629Z,929.28
2017-09-26T14:03:14.721Z,929.29
2017-09-26T14:03:34.529Z,929.27
2017-09-26T14:04:08.601Z,929.3
2017-09-26T14:04:27.504Z,929.22
2017-09-26T14:04:46.877Z,929.23
2017-09-26T14:05:40.295Z,929.24
2017-09-26T14:06:00.211Z,929.28
2017-09-26T14:06:17.854Z,929.26
2017-09-26T14:06:37.076Z,929.25
2017-09-26T14:06:56.775Z,929.25
2017-09-26T14:07:15.653Z,929.22
2017-09-26T14:07:35.450Z,929.2
2017-09-26T14:07:54.813Z,929.23
2017-09-26T14:08:13.263Z,929.28
2017-09-26T14:08:32.655Z,929.21
2017-09-26T14:08:51.177Z,929.21
2017-09-26T14:09:11.540Z,929.23
2017-09-26T14:09:31.041Z,929.24
2017-09-26T14:09:49.462Z,929.19
2017-09-26T14:10:09.432Z,929.19
2017-09-26T14:10:42.212Z,929.23
2017-09-26T14:11:01.992Z,929.24
2017-09-26T14:11:22.615Z,929.26
2017-09-26T14:11:42.742Z,929.24
2017-09-26T14:12:04.985Z,929.22
2017-09-26T14:12:29.211Z,929.22
2017-09-26T14:12:49.806Z,929.24
2017-09-26T14:13:10.871Z,929.24
2017-09-26T14:13:31.330Z,929.2
2017-09-26T14:13:50.515Z,929.22
2017-09-26T14:14:10.791Z,929.25
2017-09-26T14:14:30.647Z,929.22
2017-09-26T14:14:51.525Z,929.25
2017-09-26T14:15:13.550Z,929.23
2017-09-26T14:15:40.213Z,929.22
2017-09-26T14:16:04.062Z,929.22
2017-09-26T14:16:26.282Z,929.21
2017-09-26T14:16:49.141Z,929.19
2017-09-26T14:17:08.598Z,929.2
2017-09-26T14:17:31.047Z,929.17
2017-09-26T14:17:56.508Z,929.21
2017-09-26T14:18:19.400Z,929.15
2017-09-26T14:18:39.633Z,929.19
2017-09-26T14:19:00.953Z,929.13
2017-09-26T14:19:22.387Z,929.15
2017-09-26T14:19:56.610Z,929.11
2017-09-26T14:20:39.970Z,929.11
2017-09-26T14:21:03.052Z,929.14
2017-09-26T14:21:22.237Z,929.11
2017-09-26T14:21:41.292Z,929.09
2017-09-26T14:22:02.907Z,929.1
2017-09-26T14:22:22.360Z,929.1
2017-09-26T14:22:42.839Z,929.09
2017-09-26T14:23:05.448Z,929.05
2017-09-26T14:23:35.377Z,929
2017-09-26T14:23:56.168Z,929.01
2017-09-26T14:24:15.561Z,929.03
2017-09-26T14:24:35.551Z,929
2017-09-26T14:24:53.575Z,929
2017-09-26T14:25:13.385Z,929.02
2017-09-26T14:25:38.505Z,929
2017-09-26T14:25:57.952Z,928.99
2017-09-26T14:26:27.720Z,929.01
2017-09-26T14:26:56.597Z,928.98
2017-09-26T14:27:35.784Z,928.98
2017-09-26T14:28:05.178Z,928.92
2017-09-26T14:28:38.026Z,928.92
2017-09-26T14:29:11.043Z,928.93
2017-09-26T14:29:49.206Z,929
2017-09-26T14:30:11.632Z,928.94
2017-09-26T14:30:31.645Z,928.92
2017-09-26T14:30:51.681Z,928.94
2017-09-26T14:31:11.387Z,928.94
2017-09-26T14:31:31.867Z,928.91
2017-09-26T14:31:55.517Z,928.91
2017-09-26T14:32:18.919Z,928.91
2017-09-26T14:32:52.742Z,928.96
2017-09-26T14:33:12.947Z,928.92
2017-09-26T14:33:34.711Z,928.91
2017-09-26T14:33:56.385Z,928.86
2017-09-26T14:34:17.445Z,928.87
2017-09-26T14:34:50.910Z,928.93
2017-09-26T14:35:25.440Z,928.9
2017-09-26T14:35:48.578Z,928.91
2017-09-26T14:36:19.516Z,928.88
2017-09-26T14:36:42.672Z,928.88
2017-09-26T14:37:04.711Z,928.87
2017-09-26T14:37:24.697Z,928.89
2017-09-26T14:37:58.759Z,928.85
2017-09-26T14:38:19.103Z,928.86
2017-09-26T14:38:39.520Z,928.87
2017-09-26T14:39:01.209Z,928.88
2017-09-26T14:39:24.762Z,928.78
2017-09-26T14:39:44.087Z,928.84
2017-09-26T14:40:04.614Z,928.83
2017-09-26T14:40:37.331Z,928.85
2017-09-26T14:40:56.098Z,928.85
2017-09-26T14:41:16.506Z,928.83
2017-09-26T14:41:35.454Z,928.79
2017-09-26T14:42:11.092Z,928.81
2017-09-26T14:42:31.786Z,928.8
2017-09-26T14:42:53.220Z,928.8
2017-09-26T14:43:13.409Z,928.78
2017-09-26T14:43:35.534Z,928.8
2017-09-26T14:44:00.035Z,928.8
2017-09-26T14:44:38.011Z,928.8
2017-09-26T14:45:05.733Z,928.79
2017-09-26T14:45:29.198Z,928.79
2017-09-26T14:45:50.816Z,928.75
2017-09-26T14:46:24.923Z,928.79
2017-09-26T14:46:56.392Z,928.78
2017-09-26T14:47:22.331Z,928.76
2017-09-26T14:47:41.859Z,928.76
2017-09-26T14:47:59.450Z,928.73
2017-09-26T14:48:18.710Z,928.7
2017-09-26T14:48:37.870Z,928.7
2017-09-26T14:49:10.580Z,928.66
2017-09-26T14:50:06.942Z,928.7
2017-09-26T14:50:25.839Z,928.67
2017-09-26T14:50:44.788Z,928.7
2017-09-26T14:51:04.297Z,928.65
2017-09-26T14:51:23.608Z,928.65
2017-09-26T14:51:42.218Z,928.64
2017-09-26T14:52:00.742Z,928.65
2017-09-26T14:52:21.005Z,928.61
2017-09-26T14:52:40.000Z,928.63
2017-09-26T14:52:59.712Z,928.65
2017-09-26T14:53:28.655Z,928.59
2017-09-26T14:53:53.344Z,928.61
2017-09-26T14:54:16.155Z,928.57
2017-09-26T14:54:50.420Z,928.6
2017-09-26T14:55:17.356Z,928.56
2017-09-26T14:55:43.372Z,928.6
2017-09-26T14:56:04.333Z,928.61
2017-09-26T14:56:31.277Z,928.6
2017-09-26T14:56:53.358Z,928.57
2017-09-26T14:57:27.360Z,928.6
2017-09-26T14:57:47.768Z,928.55
2017-09-26T14:58:14.267Z,928.55
2017-09-26T14:58:37.146Z,928.57
2017-09-26T14:58:58.574Z,928.54
2017-09-26T14:59:32.677Z,928.56
2017-09-26T15:00:06.670Z,928.5
2017-09-26T15:00:34.377Z,928.52
2017-09-26T15:01:03.863Z,928.53
2017-09-26T15:01:24.270Z,928.5
2017-09-26T15:01:42.652Z,928.47
2017-09-26T15:02:02.233Z,928.47
2017-09-26T15:02:23.164Z,928.47
2017-09-26T15:02:43.183Z,928.47
2017-09-26T15:03:04.539Z,928.5
2017-09-26T15:03:26.305Z,928.48
2017-09-26T15:03:46.757Z,928.46
2017-09-26T15:04:10.229Z,928.43
2017-09-26T15:04:28.535Z,928.45
2017-09-26T15:04:48.629Z,928.44
2017-09-26T15:05:09.458Z,928.39
2017-09-26T15:05:30.305Z,928.44
2017-09-26T15:05:51.524Z,928.43
2017-09-26T15:06:11.317Z,928.41
2017-09-26T15:06:32.807Z,928.41
2017-09-26T15:06:51.327Z,928.41
2017-09-26T15:07:11.364Z,928.44
2017-09-26T15:07:30.160Z,928.36
2017-09-26T15:07:52.807Z,928.36
2017-09-26T15:08:13.894Z,928.36
2017-09-26T15:08:36.995Z,928.38
2017-09-26T15:09:11.437Z,928.36
2017-09-26T15:09:34.060Z,928.35
2017-09-26T15:09:53.498Z,928.35
2017-09-26T15:10:26.600Z,928.33
2017-09-26T15:11:00.252Z,928.33
2017-09-26T15:11:36.045Z,928.33
2017-09-26T15:11:56.476Z,928.32
2017-09-26T15:12:30.284Z,928.31
2017-09-26T15:12:50.662Z,928.33
2017-09-26T15:13:09.688Z,928.27
2017-09-26T15:13:29.652Z,928.29
2017-09-26T15:13:50.379Z,928.29
2017-09-26T15:14:11.648Z,928.3
2017-09-26T15:14:33.085Z,928.28
2017-09-26T15:14:55.527Z,928.27
2017-09-26T15:15:15.652Z,928.28
2017-09-26T15:15:36.532Z,928.27
2017-09-26T15:16:12.215Z,928.26
2017-09-26T15:16:33.799Z,928.22
2017-09-26T15:16:53.873Z,928.26
2017-09-26T15:17:13.428Z,928.24
2017-09-26T15:17:33.095Z,928.2
2017-09-26T15:17:53.709Z,928.18
2017-09-26T15:18:14.129Z,928.18
2017-09-26T15:18:33.990Z,928.18
2017-09-26T15:18:53.805Z,928.16
2017-09-26T15:19:18.133Z,928.13
2017-09-26T15:19:39.144Z,928.11
2017-09-26T15:19:58.205Z,928.15
2017-09-26T15:20:18.403Z,928.15
2017-09-26T15:20:37.866Z,928.12
2017-09-26T15:20:56.379Z,928.14
2017-09-26T15:21:30.466Z,928.1
2017-09-26T15:21:53.042Z,928.11
2017-09-26T15:22:13.477Z,928.1
2017-09-26T15:22:32.642Z,928.1
2017-09-26T15:22:53.342Z,928.16
2017-09-26T15:23:15.173Z,928.14
2017-09-26T15:23:34.616Z,928.15
2017-09-26T15:23:55.856Z,928.1
2017-09-26T15:24:17.634Z,928.12
2017-09-26T15:24:45.914Z,928.09
2017-09-26T15:25:07.940Z,928.12
2017-09-26T15:25:34.323Z,928.09
2017-09-26T15:25:54.623Z,928.11
2017-09-26T15:26:14.616Z,928.08
2017-09-26T15:26:36.291Z,928.09
2017-09-26T15:26:54.399Z,928.05
2017-09-26T15:27:18.138Z,928.05
2017-09-26T15:27:40.945Z,928.08
2017-09-26T15:28:02.439Z,928.04
2017-09-26T15:28:24.610Z,928.04
2017-09-26T15:28:46.922Z,928.06
2017-09-26T15:29:11.271Z,928.06
2017-09-26T15:29:38.843Z,928.09
2017-09-26T15:30:08.572Z,928.06
2017-09-26T15:30:43.446Z,928.06
2017-09-26T15:31:26.792Z,928.06
2017-09-26T15:32:06.955Z,928.05
2017-09-26T15:33:01.945Z,928.03
2017-09-26T15:33:55.612Z,928.04
2017-09-26T15:35:37.439Z,928.03
2017-09-26T15:37:13.642Z,927.97
2017-09-26T15:38:33.784Z,928.01
2017-09-26T15:40:03.395Z,927.99
2017-09-26T15:41:07.239Z,927.97
2017-09-26T15:41:46.608Z,927.93
2017-09-26T15:42:22.723Z,927.99
2017-09-26T15:42:59.436Z,927.97
2017-09-26T15:43:54.660Z,927.97
2017-09-26T15:44:53.978Z,928
2017-09-26T15:46:00.176Z,927.9
2017-09-26T15:46:30.741Z,927.66
2017-09-26T15:46:53.660Z,927.63
2017-09-26T15:47:13.777Z,927.62
2017-09-26T15:47:32.170Z,927.69
2017-09-26T15:48:05.677Z,927.6
2017-09-26T15:48:26.439Z,927.63
2017-09-26T15:48:44.555Z,927.62
2017-09-26T15:49:04.573Z,927.63
2017-09-26T15:49:25.300Z,927.6
2017-09-26T15:49:44.908Z,927.6
2017-09-26T15:50:05.831Z,927.64
2017-09-26T15:50:27.904Z,927.76
2017-09-26T15:50:57.496Z,927.81
2017-09-26T15:51:19.552Z,927.88
2017-09-26T15:51:51.105Z,927.89
2017-09-26T15:52:29.584Z,927.86
2017-09-26T15:53:05.771Z,927.83
2017-09-26T15:53:28.108Z,927.82
2017-09-26T15:53:49.338Z,927.82
2017-09-26T15:54:09.202Z,927.81
2017-09-26T15:54:34.209Z,927.79
2017-09-26T15:54:56.476Z,927.79
2017-09-26T15:55:26.438Z,927.75
2017-09-26T15:55:50.750Z,927.73
2017-09-26T15:56:14.193Z,927.68
2017-09-26T15:56:43.457Z,927.64
2017-09-26T15:57:05.571Z,927.69
2017-09-26T15:57:26.258Z,927.68
2017-09-26T15:57:48.688Z,927.7
2017-09-26T15:58:08.926Z,927.72
2017-09-26T15:58:36.170Z,927.68
2017-09-26T15:59:05.570Z,927.67
2017-09-26T15:59:26.444Z,927.71
2017-09-26T15:59:50.122Z,927.69
2017-09-26T16:00:25.335Z,927.6
2017-09-26T16:00:51.116Z,927.42
2017-09-26T16:01:11.445Z,927.51
2017-09-26T16:01:32.854Z,927.67
2017-09-26T16:01:54.280Z,927.67
2017-09-26T16:02:14.318Z,927.57
2017-09-26T16:02:34.917Z,927.44
2017-09-26T16:02:55.678Z,927.42
2017-09-26T16:03:16.947Z,927.68
2017-09-26T16:03:35.890Z,927.63
2017-09-26T16:04:11.524Z,927.51
2017-09-26T16:04:33.685Z,927.58
2017-09-26T16:04:53.437Z,927.61
2017-09-26T16:05:13.669Z,927.66
2017-09-26T16:05:37.115Z,927.63
2017-09-26T16:05:58.965Z,927.6
2017-09-26T16:06:20.277Z,927.58
2017-09-26T16:06:40.344Z,927.56
2017-09-26T16:07:01.021Z,927.25
2017-09-26T16:07:21.779Z,927.34
2017-09-26T16:07:42.443Z,927.31
2017-09-26T16:08:14.050Z,927.45
2017-09-26T16:08:38.544Z,927.51
2017-09-26T16:08:57.753Z,927.65
2017-09-26T16:09:17.991Z,927.64
2017-09-26T16:09:38.122Z,927.56
2017-09-26T16:09:59.134Z,927.57
2017-09-26T16:10:24.959Z,927.55
2017-09-26T16:10:46.439Z,927.53
2017-09-26T16:11:08.159Z,927.55
2017-09-26T16:11:28.994Z,927.52
2017-09-26T16:11:52.520Z,927.51
2017-09-26T16:12:15.680Z,927.52
2017-09-26T16:12:48.367Z,927.2
2017-09-26T16:13:07.961Z,927.13
2017-09-26T16:13:27.943Z,927.26
2017-09-26T16:13:47.848Z,927.44
2017-09-26T16:14:08.706Z,927.21
2017-09-26T16:14:28.925Z,927.21
2017-09-26T16:14:47.386Z,927.2
2017-09-26T16:15:14.859Z,927.22
2017-09-26T16:15:48.727Z,927.23
2017-09-26T16:16:11.296Z,927.21
2017-09-26T16:16:32.969Z,927.23
2017-09-26T16:16:56.442Z,927.39
2017-09-26T16:17:17.045Z,927.45
2017-09-26T16:17:36.161Z,927.46
2017-09-26T16:17:55.882Z,927.4
2017-09-26T16:18:14.997Z,927.38
2017-09-26T16:18:34.830Z,927.47
2017-09-26T16:18:53.049Z,927.37
2017-09-26T16:19:15.036Z,927.45
2017-09-26T16:19:40.623Z,927.46
2017-09-26T16:20:02.749Z,927.16
2017-09-26T16:20:22.271Z,927.16
2017-09-26T16:20:42.211Z,927.15
2017-09-26T16:21:02.839Z,927.14
2017-09-26T16:21:21.808Z,927.13
2017-09-26T16:21:42.706Z,927.11
2017-09-26T16:22:02.640Z,927.07
2017-09-26T16:22:25.638Z,927.01
2017-09-26T16:22:45.448Z,927.05
2017-09-26T16:23:05.938Z,927.07
2017-09-26T16:23:25.376Z,926.95
2017-09-26T16:23:45.432Z,926.98
2017-09-26T16:24:04.034Z,926.95
2017-09-26T16:24:24.808Z,926.94
2017-09-26T16:24:48.186Z,926.98
2017-09-26T16:25:18.991Z,926.97
2017-09-26T16:25:51.559Z,926.99
2017-09-26T16:26:11.894Z,927.02
2017-09-26T16:26:30.174Z,926.94
2017-09-26T16:26:49.937Z,926.97
2017-09-26T16:27:09.710Z,926.87
2017-09-26T16:27:30.607Z,926.92
2017-09-26T16:27:49.357Z,927.05
2017-09-26T16:28:09.099Z,927.01
2017-09-26T16:28:30.656Z,926.97
2017-09-26T16:29:05.186Z,927.01
2017-09-26T16:30:13.878Z,926.98
2017-09-26T16:30:42.772Z,927
2017-09-26T16:31:04.094Z,926.98
2017-09-26T16:31:38.938Z,927.03
2017-09-26T16:31:57.101Z,926.98
2017-09-26T16:32:16.185Z,926.98
2017-09-26T16:32:36.144Z,927.03
2017-09-26T16:32:57.397Z,927.03
2017-09-26T16:33:17.725Z,927.07
2017-09-26T16:33:51.178Z,927.1
2017-09-26T16:34:11.413Z,927.18
2017-09-26T16:34:30.412Z,927.17
2017-09-26T16:34:49.549Z,926.99
2017-09-26T16:35:09.447Z,926.98
2017-09-26T16:35:28.286Z,927.05
2017-09-26T16:35:48.339Z,927.01
2017-09-26T16:36:07.557Z,927.05
2017-09-26T16:36:26.334Z,926.96
2017-09-26T16:36:46.558Z,927.01
2017-09-26T16:37:05.170Z,926.97
2017-09-26T16:37:23.795Z,927
2017-09-26T16:37:44.363Z,926.99
2017-09-26T16:38:04.308Z,926.95
2017-09-26T16:38:23.556Z,926.99
2017-09-26T16:38:43.900Z,926.98
2017-09-26T16:39:05.245Z,927.13
2017-09-26T16:39:24.171Z,926.95
2017-09-26T16:39:44.643Z,927.19
2017-09-26T16:40:04.682Z,926.98
2017-09-26T16:40:25.166Z,927.25
2017-09-26T16:40:45.364Z,926.94
2017-09-26T16:41:19.837Z,927.27
2017-09-26T16:41:37.588Z,927.18
2017-09-26T16:41:57.996Z,927.08
2017-09-26T16:42:22.045Z,927.06
2017-09-26T16:42:47.846Z,927.26
2017-09-26T16:43:10.091Z,927.25
2017-09-26T16:43:31.148Z,926.91
2017-09-26T16:44:39.452Z,927.13
2017-09-26T16:45:00.869Z,927.01
2017-09-26T16:45:27.764Z,927.15
2017-09-26T16:46:20.461Z,927.23
2017-09-26T16:46:55.784Z,927.1
2017-09-26T16:47:16.876Z,926.99
2017-09-26T16:47:38.037Z,927.14
2017-09-26T16:47:59.937Z,927.14
2017-09-26T16:48:20.790Z,926.89
2017-09-26T16:48:41.619Z,926.96
2017-09-26T16:49:05.351Z,927.18
2017-09-26T16:49:27.660Z,927.11
2017-09-26T16:49:48.635Z,927.05
2017-09-26T16:50:08.840Z,927.14
2017-09-26T16:50:30.017Z,927.15
2017-09-26T16:50:51.114Z,927.19
2017-09-26T16:51:25.341Z,927.22
2017-09-26T16:51:52.576Z,927.28
2017-09-26T16:52:13.066Z,927.19
2017-09-26T16:52:36.495Z,927.24
2017-09-26T16:53:00.384Z,927.25
2017-09-26T16:53:20.074Z,927.15
2017-09-26T16:53:41.354Z,927.25
2017-09-26T16:54:36.241Z,927.14
2017-09-26T16:54:55.171Z,927.06
2017-09-26T16:55:13.582Z,927.15
2017-09-26T16:55:32.802Z,927.01
2017-09-26T16:56:24.860Z,926.96
2017-09-26T16:56:43.180Z,927.19
2017-09-26T16:57:02.480Z,927
2017-09-26T16:57:20.763Z,926.97
2017-09-26T16:57:40.522Z,926.92
2017-09-26T16:58:00.390Z,927.02
2017-09-26T16:58:20.875Z,927.01
2017-09-26T16:58:40.945Z,927.03
2017-09-26T16:58:59.928Z,926.94
2017-09-26T16:59:20.592Z,927.07
2017-09-26T16:59:39.042Z,927.02
2017-09-26T16:59:59.376Z,927.06
2017-09-26T17:00:20.113Z,927.14
2017-09-26T17:00:40.922Z,927.07
2017-09-26T17:01:38.278Z,926.84
2017-09-26T17:01:57.643Z,926.84
2017-09-26T17:02:19.628Z,926.76
2017-09-26T17:03:13.228Z,926.78
2017-09-26T17:03:33.653Z,926.8
2017-09-26T17:03:55.018Z,926.66
2017-09-26T17:04:18.041Z,926.78
2017-09-26T17:04:36.983Z,926.74
2017-09-26T17:05:10.816Z,926.73
2017-09-26T17:05:44.326Z,926.67
2017-09-26T17:06:03.240Z,926.72
2017-09-26T17:06:22.465Z,926.75
2017-09-26T17:06:42.054Z,926.73
2017-09-26T17:07:01.380Z,926.79
2017-09-26T17:07:20.506Z,926.74
2017-09-26T17:07:53.392Z,926.77
2017-09-26T17:08:27.182Z,926.79
2017-09-26T17:08:45.357Z,926.72
2017-09-26T17:09:05.442Z,926.75
2017-09-26T17:09:25.296Z,926.75
2017-09-26T17:09:45.294Z,926.78
2017-09-26T17:10:05.384Z,926.67
2017-09-26T17:10:24.361Z,926.69
2017-09-26T17:10:43.984Z,926.76
2017-09-26T17:11:04.057Z,927.1
2017-09-26T17:11:22.604Z,927.08
2017-09-26T17:11:41.148Z,927.1
2017-09-26T17:12:01.485Z,927.11
2017-09-26T17:12:20.878Z,927.05
2017-09-26T17:12:40.377Z,927.1
2017-09-26T17:12:59.203Z,927.16
2017-09-26T17:13:18.801Z,927.13
2017-09-26T17:13:37.127Z,927.14
2017-09-26T17:13:56.827Z,927.15
2017-09-26T17:14:16.259Z,927.14
2017-09-26T17:14:34.670Z,927.17
2017-09-26T17:14:53.417Z,927.18
2017-09-26T17:15:12.523Z,927.16
2017-09-26T17:15:30.994Z,927.17
2017-09-26T17:15:52.260Z,927.16
2017-09-26T17:16:25.185Z,927.2
2017-09-26T17:16:45.125Z,927.12
2017-09-26T17:17:18.295Z,927.17
2017-09-26T17:17:37.305Z,927.2
2017-09-26T17:17:55.296Z,927.21
2017-09-26T17:18:15.184Z,927.16
2017-09-26T17:18:34.642Z,927.21
2017-09-26T17:18:53.625Z,927.2
2017-09-26T17:19:12.192Z,927.2
2017-09-26T17:19:30.956Z,927.16
2017-09-26T17:20:04.256Z,927.24
2017-09-26T17:20:23.066Z,927.11
2017-09-26T17:20:56.387Z,927.14
2017-09-26T17:21:14.643Z,927.1
2017-09-26T17:21:33.157Z,927.01
2017-09-26T17:21:52.713Z,927.15
2017-09-26T17:22:11.000Z,927.15
2017-09-26T17:22:43.323Z,927.15
2017-09-26T17:23:01.271Z,927.06
2017-09-26T17:23:20.251Z,927.06
2017-09-26T17:23:38.206Z,927.15
2017-09-26T17:23:56.807Z,927.13
2017-09-26T17:24:29.153Z,927.17
2017-09-26T17:24:47.143Z,927.04
2017-09-26T17:25:05.126Z,927.11
2017-09-26T17:25:23.903Z,927.15
2017-09-26T17:25:42.761Z,927.12
2017-09-26T17:26:35.708Z,927.12
2017-09-26T17:27:09.170Z,927.08
2017-09-26T17:27:28.260Z,927.02
2017-09-26T17:28:01.227Z,927.1
2017-09-26T17:28:20.613Z,927.1
2017-09-26T17:28:39.395Z,927.05
2017-09-26T17:28:57.686Z,927.06
2017-09-26T17:29:31.204Z,927.09
2017-09-26T17:29:49.624Z,927.12
2017-09-26T17:30:09.107Z,926.94
2017-09-26T17:30:27.406Z,926.94
2017-09-26T17:30:46.496Z,927.05
2017-09-26T17:31:18.728Z,927.11
2017-09-26T17:31:38.197Z,927.02
2017-09-26T17:31:56.575Z,927
2017-09-26T17:32:14.851Z,927.07
2017-09-26T17:32:33.621Z,927.04
2017-09-26T17:32:53.180Z,927.08
2017-09-26T17:33:12.256Z,927.06
2017-09-26T17:33:30.028Z,927.08
2017-09-26T17:34:02.267Z,927.11
2017-09-26T17:34:21.266Z,927.06
2017-09-26T17:34:39.112Z,927.03
2017-09-26T17:34:58.620Z,927.11
2017-09-26T17:35:17.655Z,927.08
2017-09-26T17:35:37.143Z,927.04
2017-09-26T17:35:55.115Z,926.99
2017-09-26T17:36:14.619Z,927.12
2017-09-26T17:36:34.426Z,927.1
2017-09-26T17:36:54.228Z,926.93
2017-09-26T17:37:13.727Z,926.9
2017-09-26T17:37:32.540Z,926.99
2017-09-26T17:37:52.561Z,926.98
2017-09-26T17:38:11.883Z,927.07
2017-09-26T17:38:31.254Z,927.08
2017-09-26T17:38:50.537Z,926.95
2017-09-26T17:39:09.631Z,927.07
2017-09-26T17:39:29.700Z,927.05
2017-09-26T17:40:03.289Z,927.1
2017-09-26T17:40:23.040Z,927.11
2017-09-26T17:40:43.324Z,927.08
2017-09-26T17:41:02.996Z,927.05
2017-09-26T17:41:22.532Z,927.05
2017-09-26T17:41:42.356Z,927.03
2017-09-26T17:42:15.106Z,927.15
2017-09-26T17:42:48.630Z,927.12
2017-09-26T17:43:08.214Z,927.11
2017-09-26T17:43:27.079Z,927.06
2017-09-26T17:44:00.538Z,927
2017-09-26T17:44:33.682Z,927.08
2017-09-26T17:44:52.807Z,927.05
2017-09-26T17:45:11.627Z,927.07
2017-09-26T17:45:30.729Z,927.05
2017-09-26T17:45:50.200Z,927.07
2017-09-26T17:46:23.738Z,927.09
2017-09-26T17:46:42.643Z,927.09
2017-09-26T17:47:03.233Z,927.05
2017-09-26T17:47:56.060Z,926.93
2017-09-26T17:48:15.589Z,926.94
2017-09-26T17:48:35.060Z,926.8
2017-09-26T17:48:53.902Z,926.81
2017-09-26T17:49:27.244Z,926.78
2017-09-26T17:49:46.864Z,926.91
2017-09-26T17:50:05.626Z,926.89
2017-09-26T17:50:24.205Z,926.91
2017-09-26T17:50:44.002Z,926.91
2017-09-26T17:51:03.352Z,926.86
2017-09-26T17:51:36.216Z,926.91
2017-09-26T17:51:54.736Z,926.88
2017-09-26T17:52:13.367Z,926.84
2017-09-26T17:52:33.014Z,926.91
2017-09-26T17:53:07.263Z,926.98
2017-09-26T17:53:25.732Z,926.79
2017-09-26T17:53:46.017Z,926.93
2017-09-26T17:54:05.743Z,926.89
2017-09-26T17:54:25.718Z,926.89
2017-09-26T17:54:44.777Z,926.85
2017-09-26T17:55:05.092Z,926.88
2017-09-26T17:55:23.684Z,926.83
2017-09-26T17:55:42.751Z,926.79
2017-09-26T17:56:02.763Z,926.87
2017-09-26T17:56:22.479Z,926.81
2017-09-26T17:56:42.571Z,926.84
2017-09-26T17:57:02.846Z,926.83
2017-09-26T17:57:22.850Z,926.83
2017-09-26T17:57:41.866Z,926.78
2017-09-26T17:58:01.228Z,926.86
2017-09-26T17:58:20.014Z,926.78
2017-09-26T17:58:53.470Z,926.79
2017-09-26T17:59:12.692Z,926.81
2017-09-26T17:59:33.872Z,926.81
2017-09-26T18:00:25.879Z,926.82
2017-09-26T18:00:44.686Z,926.89
2017-09-26T18:01:03.596Z,927.03
2017-09-26T18:01:36.992Z,926.98
2017-09-26T18:01:56.054Z,926.97
2017-09-26T18:02:15.579Z,926.99
2017-09-26T18:02:47.299Z,926.9
2017-09-26T18:03:06.310Z,926.88
2017-09-26T18:03:25.069Z,926.96
2017-09-26T18:03:44.633Z,926.92
2017-09-26T18:04:03.638Z,926.97
2017-09-26T18:04:21.888Z,927
2017-09-26T18:04:39.610Z,926.97
2017-09-26T18:04:58.808Z,926.99
2017-09-26T18:05:19.369Z,926.98
2017-09-26T18:05:40.430Z,927.02
2017-09-26T18:06:12.185Z,926.93
2017-09-26T18:06:31.646Z,926.83
2017-09-26T18:06:50.992Z,926.99
2017-09-26T18:07:10.153Z,926.96
2017-09-26T18:07:29.172Z,926.93
2017-09-26T18:08:03.747Z,926.95
2017-09-26T18:08:23.035Z,926.93
2017-09-26T18:08:41.282Z,926.91
2017-09-26T18:08:59.982Z,926.77
2017-09-26T18:09:19.064Z,926.94
2017-09-26T18:09:38.516Z,926.9
2017-09-26T18:09:58.470Z,926.86
2017-09-26T18:10:16.846Z,926.94
2017-09-26T18:10:35.617Z,926.95
2017-09-26T18:10:54.211Z,926.96
2017-09-26T18:11:13.245Z,926.86
2017-09-26T18:11:32.247Z,927.01
2017-09-26T18:11:50.628Z,926.98
2017-09-26T18:12:10.562Z,926.93
2017-09-26T18:12:28.923Z,927.03
2017-09-26T18:12:47.721Z,926.94
2017-09-26T18:13:06.342Z,926.99
2017-09-26T18:13:25.497Z,927.03
2017-09-26T18:13:44.324Z,926.93
2017-09-26T18:14:02.787Z,926.99
2017-09-26T18:14:35.208Z,927.04
2017-09-26T18:14:53.528Z,927.04
2017-09-26T18:15:12.309Z,927.01
2017-09-26T18:15:31.108Z,926.99
2017-09-26T18:15:50.564Z,926.99
2017-09-26T18:16:10.236Z,926.98
2017-09-26T18:16:29.961Z,926.94
2017-09-26T18:16:49.011Z,926.95
2017-09-26T18:17:07.098Z,927.02
2017-09-26T18:17:26.413Z,927.03
2017-09-26T18:17:54.445Z,927.03
2017-09-26T18:18:26.278Z,927.05
2017-09-26T18:18:48.006Z,926.95
2017-09-26T18:19:08.456Z,926.97
2017-09-26T18:19:42.013Z,926.94
2017-09-26T18:20:02.706Z,926.89
2017-09-26T18:20:23.306Z,926.9
2017-09-26T18:20:42.975Z,926.9
2017-09-26T18:21:03.249Z,926.92
2017-09-26T18:21:21.915Z,926.87
2017-09-26T18:22:16.067Z,926.97
2017-09-26T18:22:37.466Z,926.95
2017-09-26T18:22:58.323Z,926.95
2017-09-26T18:23:17.612Z,926.94
2017-09-26T18:23:37.208Z,926.99